createdAt,value
2017-01-02T00:00:14.745Z,-4
2017-01-02T00:00:33.385Z,-4
2017-01-02T00:00:52.028Z,-3.9
2017-01-02T00:01:10.676Z,-3.8
2017-01-02T00:01:29.327Z,-3.8
2017-01-02T00:01:47.975Z,-3.8
2017-01-02T00:02:06.656Z,-3.7
2017-01-02T00:02:25.299Z,-3.7
2017-01-02T00:02:43.946Z,-3.6
2017-01-02T00:03:02.613Z,-3.6
2017-01-02T00:03:21.274Z,-3.5
2017-01-02T00:03:39.929Z,-3.5
2017-01-02T00:03:58.579Z,-3.4
2017-01-02T00:04:17.223Z,-3.4
2017-01-02T00:04:35.868Z,-3.4
2017-01-02T00:04:54.517Z,-3.3
2017-01-02T00:05:13.196Z,-3.3
2017-01-02T00:05:31.846Z,-3.3
2017-01-02T00:05:50.488Z,-3.3
2017-01-02T00:06:09.142Z,-3.3
2017-01-02T00:06:27.795Z,-3.3
2017-01-02T00:06:46.458Z,-3.4
2017-01-02T00:07:05.120Z,-3.4
2017-01-02T00:07:23.757Z,-3.3
2017-01-02T00:07:42.405Z,-3.3
2017-01-02T00:08:01.059Z,-3.3
2017-01-02T00:08:19.707Z,-3.3
2017-01-02T00:08:38.365Z,-3.3
2017-01-02T00:08:57.020Z,-3.3
2017-01-02T00:09:15.666Z,-3.4
2017-01-02T00:09:34.312Z,-3.4
2017-01-02T00:09:52.963Z,-3.4
2017-01-02T00:10:11.644Z,-3.4
2017-01-02T00:10:30.291Z,-3.4
2017-01-02T00:10:48.936Z,-3.4
2017-01-02T00:11:07.581Z,-3.4
2017-01-02T00:11:26.229Z,-3.4
2017-01-02T00:11:44.881Z,-3.4
2017-01-02T00:12:03.532Z,-3.4
2017-01-02T00:12:22.184Z,-3.4
2017-01-02T00:12:40.832Z,-3.4
2017-01-02T00:12:59.491Z,-3.4
2017-01-02T00:13:18.137Z,-3.4
2017-01-02T00:13:36.800Z,-3.4
2017-01-02T00:13:55.455Z,-3.5
2017-01-02T00:14:14.103Z,-3.5
2017-01-02T00:14:32.754Z,-3.5
2017-01-02T00:14:51.411Z,-3.5
2017-01-02T00:15:10.075Z,-3.6
2017-01-02T00:15:28.716Z,-3.6
2017-01-02T00:15:47.361Z,-3.6
2017-01-02T00:16:06.014Z,-3.5
2017-01-02T00:16:24.666Z,-3.5
2017-01-02T00:16:43.304Z,-3.5
2017-01-02T00:17:01.951Z,-3.5
2017-01-02T00:17:20.598Z,-3.4
2017-01-02T00:17:39.248Z,-3.4
2017-01-02T00:17:57.898Z,-3.4
2017-01-02T00:18:16.585Z,-3.4
2017-01-02T00:18:35.234Z,-3.4
2017-01-02T00:18:53.878Z,-3.4
2017-01-02T00:19:12.541Z,-3.4
2017-01-02T00:19:31.185Z,-3.4
2017-01-02T00:19:49.828Z,-3.4
2017-01-02T00:20:08.478Z,-3.4
2017-01-02T00:20:27.128Z,-3.4
2017-01-02T00:20:45.767Z,-3.4
2017-01-02T00:21:04.419Z,-3.3
2017-01-02T00:21:23.067Z,-3.4
2017-01-02T00:21:41.741Z,-3.3
2017-01-02T00:22:00.386Z,-3.3
2017-01-02T00:22:19.036Z,-3.3
2017-01-02T00:22:37.689Z,-3.3
2017-01-02T00:22:56.340Z,-3.3
2017-01-02T00:23:15.031Z,-3.3
2017-01-02T00:23:33.674Z,-3.3
2017-01-02T00:23:52.331Z,-3.3
2017-01-02T00:24:10.985Z,-3.3
2017-01-02T00:24:29.642Z,-3.2
2017-01-02T00:24:48.286Z,-3.2
2017-01-02T00:25:06.941Z,-3.2
2017-01-02T00:25:25.588Z,-3.2
2017-01-02T00:25:44.232Z,-3.2
2017-01-02T00:26:02.878Z,-3.2
2017-01-02T00:26:21.550Z,-3.2
2017-01-02T00:26:40.195Z,-3.2
2017-01-02T00:26:58.843Z,-3.2
2017-01-02T00:27:17.501Z,-3.2
2017-01-02T00:27:36.140Z,-3.2
2017-01-02T00:27:54.798Z,-3.2
2017-01-02T00:28:13.453Z,-3.1
2017-01-02T00:28:32.102Z,-3.1
2017-01-02T00:28:50.749Z,-3.1
2017-01-02T00:29:09.394Z,-3.1
2017-01-02T00:29:28.043Z,-3
2017-01-02T00:29:46.730Z,-3
2017-01-02T00:30:05.376Z,-3
2017-01-02T00:30:24.021Z,-3
2017-01-02T00:30:42.670Z,-3
2017-01-02T00:31:01.326Z,-3
2017-01-02T00:31:20.005Z,-3
2017-01-02T00:31:38.652Z,-3
2017-01-02T00:31:57.296Z,-3
2017-01-02T00:32:15.952Z,-3.1
2017-01-02T00:32:34.603Z,-3.1
2017-01-02T00:32:53.244Z,-3.1
2017-01-02T00:33:11.894Z,-3.1
2017-01-02T00:33:30.559Z,-3.1
2017-01-02T00:33:49.208Z,-3.1
2017-01-02T00:34:07.857Z,-3.1
2017-01-02T00:34:26.531Z,-3.1
2017-01-02T00:34:45.181Z,-3.1
2017-01-02T00:35:03.850Z,-3.1
2017-01-02T00:35:22.498Z,-3.1
2017-01-02T00:35:41.143Z,-3.1
2017-01-02T00:35:59.796Z,-3.1
2017-01-02T00:36:18.440Z,-3.1
2017-01-02T00:36:37.095Z,-3.1
2017-01-02T00:36:55.745Z,-3.1
2017-01-02T00:37:14.387Z,-3.1
2017-01-02T00:37:33.037Z,-3.1
2017-01-02T00:37:51.694Z,-3.1
2017-01-02T00:38:10.341Z,-3.1
2017-01-02T00:38:28.984Z,-3.2
2017-01-02T00:38:47.634Z,-3.2
2017-01-02T00:39:06.294Z,-3.2
2017-01-02T00:39:24.969Z,-3.2
2017-01-02T00:39:43.611Z,-3.2
2017-01-02T00:40:02.269Z,-3.2
2017-01-02T00:40:20.940Z,-3.2
2017-01-02T00:40:39.589Z,-3.3
2017-01-02T00:40:58.240Z,-3.2
2017-01-02T00:41:16.893Z,-3.2
2017-01-02T00:41:35.540Z,-3.2
2017-01-02T00:41:54.184Z,-3.2
2017-01-02T00:42:12.835Z,-3.2
2017-01-02T00:42:31.513Z,-3.2
2017-01-02T00:42:50.158Z,-3.2
2017-01-02T00:43:08.805Z,-3.2
2017-01-02T00:43:27.453Z,-3.2
2017-01-02T00:43:46.095Z,-3.2
2017-01-02T00:44:04.748Z,-3.2
2017-01-02T00:44:23.399Z,-3.2
2017-01-02T00:44:42.048Z,-3.2
2017-01-02T00:45:00.690Z,-3.2
2017-01-02T00:45:19.338Z,-3.2
2017-01-02T00:45:38.000Z,-3.2
2017-01-02T00:45:56.662Z,-3.2
2017-01-02T00:46:15.308Z,-3.2
2017-01-02T00:46:33.952Z,-3.2
2017-01-02T00:46:52.601Z,-3.2
2017-01-02T00:47:11.259Z,-3.2
2017-01-02T00:47:29.934Z,-3.1
2017-01-02T00:47:48.575Z,-3.1
2017-01-02T00:48:07.230Z,-3.1
2017-01-02T00:48:25.883Z,-3.1
2017-01-02T00:48:44.542Z,-3.1
2017-01-02T00:49:03.198Z,-3.1
2017-01-02T00:49:21.852Z,-3.1
2017-01-02T00:49:40.498Z,-3.1
2017-01-02T00:49:59.146Z,-3.1
2017-01-02T00:50:17.794Z,-3.1
2017-01-02T00:50:36.468Z,-3.2
2017-01-02T00:50:55.127Z,-3.2
2017-01-02T00:51:13.772Z,-3.2
2017-01-02T00:51:32.421Z,-3.2
2017-01-02T00:51:51.068Z,-3.2
2017-01-02T00:52:09.723Z,-3.2
2017-01-02T00:52:28.373Z,-3.2
2017-01-02T00:52:47.027Z,-3.2
2017-01-02T00:53:05.680Z,-3.3
2017-01-02T00:53:24.336Z,-3.3
2017-01-02T00:53:42.989Z,-3.3
2017-01-02T00:54:01.640Z,-3.3
2017-01-02T00:54:20.281Z,-3.3
2017-01-02T00:54:38.931Z,-3.3
2017-01-02T00:54:57.584Z,-3.3
2017-01-02T00:55:16.241Z,-3.3
2017-01-02T00:55:34.908Z,-3.3
2017-01-02T00:55:53.561Z,-3.3
2017-01-02T00:56:12.218Z,-3.3
2017-01-02T00:56:30.867Z,-3.3
2017-01-02T00:56:49.516Z,-3.3
2017-01-02T00:57:08.159Z,-3.4
2017-01-02T00:57:26.812Z,-3.3
2017-01-02T00:57:45.463Z,-3.3
2017-01-02T00:58:04.115Z,-3.4
2017-01-02T00:58:22.758Z,-3.3
2017-01-02T00:58:41.432Z,-3.3
2017-01-02T00:59:00.079Z,-3.3
2017-01-02T00:59:18.728Z,-3.3
2017-01-02T00:59:37.373Z,-3.3
2017-01-02T00:59:56.014Z,-3.4
2017-01-02T01:00:14.671Z,-3.4
2017-01-02T01:00:33.320Z,-3.4
2017-01-02T01:00:51.968Z,-3.4
2017-01-02T01:01:10.617Z,-3.4
2017-01-02T01:01:29.289Z,-3.4
2017-01-02T01:01:47.932Z,-3.4
2017-01-02T01:02:06.584Z,-3.4
2017-01-02T01:02:25.231Z,-3.4
2017-01-02T01:02:43.870Z,-3.4
2017-01-02T01:03:02.515Z,-3.5
2017-01-02T01:03:21.178Z,-3.5
2017-01-02T01:03:39.862Z,-3.5
2017-01-02T01:03:58.529Z,-3.5
2017-01-02T01:04:17.175Z,-3.5
2017-01-02T01:04:35.821Z,-3.5
2017-01-02T01:04:54.467Z,-3.5
2017-01-02T01:05:13.114Z,-3.5
2017-01-02T01:05:31.762Z,-3.5
2017-01-02T01:05:50.418Z,-3.5
2017-01-02T01:06:09.066Z,-3.5
2017-01-02T01:06:27.723Z,-3.5
2017-01-02T01:06:46.398Z,-3.5
2017-01-02T01:07:05.052Z,-3.5
2017-01-02T01:07:23.702Z,-3.5
2017-01-02T01:07:42.353Z,-3.5
2017-01-02T01:08:01.003Z,-3.5
2017-01-02T01:08:19.651Z,-3.5
2017-01-02T01:08:38.294Z,-3.5
2017-01-02T01:08:56.945Z,-3.5
2017-01-02T01:09:15.590Z,-3.5
2017-01-02T01:09:34.233Z,-3.5
2017-01-02T01:09:52.883Z,-3.5
2017-01-02T01:10:11.538Z,-3.5
2017-01-02T01:10:30.191Z,-3.5
2017-01-02T01:10:48.838Z,-3.5
2017-01-02T01:11:07.480Z,-3.5
2017-01-02T01:11:26.136Z,-3.6
2017-01-02T01:11:44.820Z,-3.6
2017-01-02T01:12:03.473Z,-3.6
2017-01-02T01:12:22.121Z,-3.6
2017-01-02T01:12:40.772Z,-3.6
2017-01-02T01:12:59.425Z,-3.6
2017-01-02T01:13:18.074Z,-3.6
2017-01-02T01:13:36.714Z,-3.6
2017-01-02T01:13:55.358Z,-3.6
2017-01-02T01:14:14.007Z,-3.6
2017-01-02T01:14:32.656Z,-3.6
2017-01-02T01:14:51.331Z,-3.6
2017-01-02T01:15:09.976Z,-3.7
2017-01-02T01:15:28.624Z,-3.7
2017-01-02T01:15:47.272Z,-3.6
2017-01-02T01:16:05.917Z,-3.7
2017-01-02T01:16:24.561Z,-3.7
2017-01-02T01:16:43.209Z,-3.7
2017-01-02T01:17:01.857Z,-3.7
2017-01-02T01:17:20.535Z,-3.7
2017-01-02T01:17:39.174Z,-3.7
2017-01-02T01:17:57.831Z,-3.6
2017-01-02T01:18:16.491Z,-3.6
2017-01-02T01:18:35.137Z,-3.6
2017-01-02T01:18:53.783Z,-3.6
2017-01-02T01:19:12.436Z,-3.6
2017-01-02T01:19:31.087Z,-3.6
2017-01-02T01:19:49.781Z,-3.6
2017-01-02T01:20:08.433Z,-3.6
2017-01-02T01:20:27.073Z,-3.6
2017-01-02T01:20:45.718Z,-3.6
2017-01-02T01:21:04.366Z,-3.6
2017-01-02T01:21:23.015Z,-3.6
2017-01-02T01:21:41.657Z,-3.6
2017-01-02T01:22:00.306Z,-3.6
2017-01-02T01:22:18.951Z,-3.6
2017-01-02T01:22:37.625Z,-3.6
2017-01-02T01:22:56.292Z,-3.6
2017-01-02T01:23:14.935Z,-3.6
2017-01-02T01:23:33.583Z,-3.6
2017-01-02T01:23:52.230Z,-3.6
2017-01-02T01:24:10.872Z,-3.6
2017-01-02T01:24:29.519Z,-3.6
2017-01-02T01:24:48.179Z,-3.6
2017-01-02T01:25:06.832Z,-3.6
2017-01-02T01:25:25.486Z,-3.6
2017-01-02T01:25:44.128Z,-3.6
2017-01-02T01:26:02.773Z,-3.5
2017-01-02T01:26:21.445Z,-3.5
2017-01-02T01:26:40.091Z,-3.5
2017-01-02T01:26:58.742Z,-3.5
2017-01-02T01:27:17.387Z,-3.5
2017-01-02T01:27:36.037Z,-3.5
2017-01-02T01:27:54.747Z,-3.5
2017-01-02T01:28:13.396Z,-3.4
2017-01-02T01:28:32.040Z,-3.4
2017-01-02T01:28:50.713Z,-3.4
2017-01-02T01:29:09.356Z,-3.3
2017-01-02T01:29:28.002Z,-3.3
2017-01-02T01:29:46.642Z,-3.3
2017-01-02T01:30:05.283Z,-3.3
2017-01-02T01:30:23.935Z,-3.2
2017-01-02T01:30:42.584Z,-3.2
2017-01-02T01:31:01.268Z,-3.2
2017-01-02T01:31:19.908Z,-3.2
2017-01-02T01:31:38.561Z,-3.2
2017-01-02T01:31:57.211Z,-3.2
2017-01-02T01:32:15.861Z,-3.2
2017-01-02T01:32:34.506Z,-3.2
2017-01-02T01:32:53.144Z,-3.2
2017-01-02T01:33:11.839Z,-3.2
2017-01-02T01:33:30.484Z,-3.2
2017-01-02T01:33:49.137Z,-3.2
2017-01-02T01:34:07.780Z,-3.2
2017-01-02T01:34:26.463Z,-3.2
2017-01-02T01:34:45.108Z,-3.2
2017-01-02T01:35:03.763Z,-3.2
2017-01-02T01:35:22.409Z,-3.2
2017-01-02T01:35:41.060Z,-3.2
2017-01-02T01:35:59.738Z,-3.2
2017-01-02T01:36:18.387Z,-3.2
2017-01-02T01:36:37.038Z,-3.2
2017-01-02T01:36:55.681Z,-3.2
2017-01-02T01:37:14.328Z,-3.2
2017-01-02T01:37:32.972Z,-3.2
2017-01-02T01:37:51.627Z,-3.2
2017-01-02T01:38:10.273Z,-3.2
2017-01-02T01:38:28.926Z,-3.2
2017-01-02T01:38:47.580Z,-3.2
2017-01-02T01:39:06.258Z,-3.2
2017-01-02T01:39:24.905Z,-3.2
2017-01-02T01:39:43.549Z,-3.2
2017-01-02T01:40:02.195Z,-3.3
2017-01-02T01:40:20.837Z,-3.2
2017-01-02T01:40:39.493Z,-3.3
2017-01-02T01:40:58.142Z,-3.3
2017-01-02T01:41:16.783Z,-3.3
2017-01-02T01:41:35.429Z,-3.2
2017-01-02T01:41:54.072Z,-3.2
2017-01-02T01:42:12.727Z,-3.2
2017-01-02T01:42:31.383Z,-3.2
2017-01-02T01:42:50.044Z,-3.2
2017-01-02T01:43:08.687Z,-3.2
2017-01-02T01:43:27.326Z,-3.2
2017-01-02T01:43:45.976Z,-3.2
2017-01-02T01:44:04.682Z,-3.2
2017-01-02T01:44:23.328Z,-3.2
2017-01-02T01:44:41.974Z,-3.2
2017-01-02T01:45:00.615Z,-3.2
2017-01-02T01:45:19.260Z,-3.2
2017-01-02T01:45:37.910Z,-3.2
2017-01-02T01:45:56.555Z,-3.3
2017-01-02T01:46:15.200Z,-3.3
2017-01-02T01:46:33.844Z,-3.3
2017-01-02T01:46:52.495Z,-3.3
2017-01-02T01:47:11.173Z,-3.3
2017-01-02T01:47:29.821Z,-3.3
2017-01-02T01:47:48.463Z,-3.4
2017-01-02T01:48:07.106Z,-3.4
2017-01-02T01:48:25.753Z,-3.3
2017-01-02T01:48:44.405Z,-3.4
2017-01-02T01:49:03.073Z,-3.4
2017-01-02T01:49:21.715Z,-3.4
2017-01-02T01:49:40.370Z,-3.4
2017-01-02T01:49:59.017Z,-3.4
2017-01-02T01:50:17.664Z,-3.4
2017-01-02T01:50:36.345Z,-3.4
2017-01-02T01:50:54.990Z,-3.4
2017-01-02T01:51:13.643Z,-3.5
2017-01-02T01:51:32.290Z,-3.5
2017-01-02T01:51:50.936Z,-3.5
2017-01-02T01:52:09.617Z,-3.5
2017-01-02T01:52:28.269Z,-3.5
2017-01-02T01:52:46.929Z,-3.5
2017-01-02T01:53:05.574Z,-3.5
2017-01-02T01:53:24.219Z,-3.5
2017-01-02T01:53:42.872Z,-3.5
2017-01-02T01:54:01.519Z,-3.5
2017-01-02T01:54:20.188Z,-3.5
2017-01-02T01:54:38.841Z,-3.5
2017-01-02T01:54:57.491Z,-3.5
2017-01-02T01:55:16.166Z,-3.5
2017-01-02T01:55:34.810Z,-3.5
2017-01-02T01:55:53.454Z,-3.5
2017-01-02T01:56:12.095Z,-3.5
2017-01-02T01:56:30.745Z,-3.5
2017-01-02T01:56:49.394Z,-3.4
2017-01-02T01:57:08.045Z,-3.4
2017-01-02T01:57:26.694Z,-3.4
2017-01-02T01:57:45.341Z,-3.4
2017-01-02T01:58:03.988Z,-3.4
2017-01-02T01:58:22.636Z,-3.4
2017-01-02T01:58:41.328Z,-3.4
2017-01-02T01:58:59.973Z,-3.4
2017-01-02T01:59:18.617Z,-3.4
2017-01-02T01:59:37.285Z,-3.3
2017-01-02T01:59:55.953Z,-3.3
2017-01-02T02:00:14.623Z,-3.3
2017-01-02T02:00:33.270Z,-3.3
2017-01-02T02:00:51.917Z,-3.3
2017-01-02T02:01:10.569Z,-3.3
2017-01-02T02:01:29.228Z,-3.3
2017-01-02T02:01:47.876Z,-3.3
2017-01-02T02:02:06.537Z,-3.3
2017-01-02T02:02:25.187Z,-3.3
2017-01-02T02:02:43.831Z,-3.3
2017-01-02T02:03:02.485Z,-3.3
2017-01-02T02:03:21.162Z,-3.3
2017-01-02T02:03:39.809Z,-3.3
2017-01-02T02:03:58.451Z,-3.3
2017-01-02T02:04:17.099Z,-3.3
2017-01-02T02:04:35.745Z,-3.3
2017-01-02T02:04:54.409Z,-3.3
2017-01-02T02:05:13.056Z,-3.3
2017-01-02T02:05:31.700Z,-3.3
2017-01-02T02:05:50.362Z,-3.3
2017-01-02T02:06:09.007Z,-3.3
2017-01-02T02:06:27.653Z,-3.3
2017-01-02T02:06:46.314Z,-3.3
2017-01-02T02:07:04.958Z,-3.3
2017-01-02T02:07:23.605Z,-3.3
2017-01-02T02:07:42.259Z,-3.3
2017-01-02T02:08:00.914Z,-3.3
2017-01-02T02:08:19.587Z,-3.3
2017-01-02T02:08:38.234Z,-3.3
2017-01-02T02:08:56.879Z,-3.3
2017-01-02T02:09:15.523Z,-3.3
2017-01-02T02:09:34.175Z,-3.3
2017-01-02T02:09:52.826Z,-3.3
2017-01-02T02:10:11.483Z,-3.4
2017-01-02T02:10:30.134Z,-3.4
2017-01-02T02:10:48.780Z,-3.3
2017-01-02T02:11:07.429Z,-3.3
2017-01-02T02:11:26.106Z,-3.3
2017-01-02T02:11:44.749Z,-3.4
2017-01-02T02:12:03.398Z,-3.3
2017-01-02T02:12:22.053Z,-3.3
2017-01-02T02:12:40.697Z,-3.3
2017-01-02T02:12:59.349Z,-3.3
2017-01-02T02:13:17.997Z,-3.3
2017-01-02T02:13:36.641Z,-3.3
2017-01-02T02:13:55.292Z,-3.4
2017-01-02T02:14:13.939Z,-3.4
2017-01-02T02:14:32.590Z,-3.4
2017-01-02T02:14:51.255Z,-3.4
2017-01-02T02:15:09.907Z,-3.4
2017-01-02T02:15:28.574Z,-3.4
2017-01-02T02:15:47.220Z,-3.5
2017-01-02T02:16:05.878Z,-3.4
2017-01-02T02:16:24.550Z,-3.4
2017-01-02T02:16:43.203Z,-3.5
2017-01-02T02:17:01.851Z,-3.5
2017-01-02T02:17:20.500Z,-3.5
2017-01-02T02:17:39.146Z,-3.5
2017-01-02T02:17:57.792Z,-3.5
2017-01-02T02:18:16.440Z,-3.5
2017-01-02T02:18:35.093Z,-3.5
2017-01-02T02:18:53.740Z,-3.5
2017-01-02T02:19:12.383Z,-3.5
2017-01-02T02:19:31.058Z,-3.5
2017-01-02T02:19:49.704Z,-3.5
2017-01-02T02:20:08.357Z,-3.5
2017-01-02T02:20:27.007Z,-3.5
2017-01-02T02:20:45.674Z,-3.5
2017-01-02T02:21:04.327Z,-3.5
2017-01-02T02:21:22.977Z,-3.5
2017-01-02T02:21:41.624Z,-3.5
2017-01-02T02:22:00.271Z,-3.5
2017-01-02T02:22:18.916Z,-3.5
2017-01-02T02:22:37.560Z,-3.5
2017-01-02T02:22:56.221Z,-3.5
2017-01-02T02:23:14.871Z,-3.6
2017-01-02T02:23:33.512Z,-3.6
2017-01-02T02:23:52.154Z,-3.6
2017-01-02T02:24:10.809Z,-3.6
2017-01-02T02:24:29.512Z,-3.6
2017-01-02T02:24:48.160Z,-3.6
2017-01-02T02:25:06.810Z,-3.6
2017-01-02T02:25:25.455Z,-3.6
2017-01-02T02:25:44.103Z,-3.6
2017-01-02T02:26:02.754Z,-3.6
2017-01-02T02:26:21.398Z,-3.7
2017-01-02T02:26:40.051Z,-3.7
2017-01-02T02:26:58.700Z,-3.7
2017-01-02T02:27:17.344Z,-3.7
2017-01-02T02:27:36.017Z,-3.7
2017-01-02T02:27:54.668Z,-3.7
2017-01-02T02:28:13.317Z,-3.8
2017-01-02T02:28:31.969Z,-3.8
2017-01-02T02:28:50.620Z,-3.8
2017-01-02T02:29:09.266Z,-3.8
2017-01-02T02:29:27.912Z,-3.8
2017-01-02T02:29:46.564Z,-3.8
2017-01-02T02:30:05.213Z,-3.8
2017-01-02T02:30:23.854Z,-3.8
2017-01-02T02:30:42.510Z,-3.8
2017-01-02T02:31:01.178Z,-3.8
2017-01-02T02:31:19.832Z,-3.8
2017-01-02T02:31:38.477Z,-3.8
2017-01-02T02:31:57.120Z,-3.8
2017-01-02T02:32:15.781Z,-3.8
2017-01-02T02:32:34.474Z,-3.8
2017-01-02T02:32:53.119Z,-3.8
2017-01-02T02:33:11.759Z,-3.8
2017-01-02T02:33:30.408Z,-3.8
2017-01-02T02:33:49.083Z,-3.8
2017-01-02T02:34:07.729Z,-3.8
2017-01-02T02:34:26.369Z,-3.7
2017-01-02T02:34:45.012Z,-3.7
2017-01-02T02:35:03.674Z,-3.7
2017-01-02T02:35:22.333Z,-3.7
2017-01-02T02:35:41.009Z,-3.7
2017-01-02T02:35:59.657Z,-3.7
2017-01-02T02:36:18.307Z,-3.7
2017-01-02T02:36:36.975Z,-3.7
2017-01-02T02:36:55.623Z,-3.6
2017-01-02T02:37:14.269Z,-3.6
2017-01-02T02:37:32.923Z,-3.6
2017-01-02T02:37:51.581Z,-3.6
2017-01-02T02:38:10.231Z,-3.6
2017-01-02T02:38:28.874Z,-3.6
2017-01-02T02:38:47.529Z,-3.6
2017-01-02T02:39:06.185Z,-3.7
2017-01-02T02:39:24.832Z,-3.7
2017-01-02T02:39:43.479Z,-3.7
2017-01-02T02:40:02.128Z,-3.7
2017-01-02T02:40:20.789Z,-3.7
2017-01-02T02:40:39.456Z,-3.8
2017-01-02T02:40:58.100Z,-3.8
2017-01-02T02:41:16.741Z,-3.8
2017-01-02T02:41:35.386Z,-3.8
2017-01-02T02:41:54.051Z,-3.8
2017-01-02T02:42:12.696Z,-3.8
2017-01-02T02:42:31.346Z,-3.8
2017-01-02T02:42:50.001Z,-3.9
2017-01-02T02:43:08.649Z,-3.9
2017-01-02T02:43:27.299Z,-3.9
2017-01-02T02:43:45.973Z,-3.9
2017-01-02T02:44:04.620Z,-3.9
2017-01-02T02:44:23.271Z,-3.9
2017-01-02T02:44:41.919Z,-3.9
2017-01-02T02:45:00.567Z,-3.9
2017-01-02T02:45:19.221Z,-3.9
2017-01-02T02:45:37.876Z,-3.9
2017-01-02T02:45:56.523Z,-4
2017-01-02T02:46:15.170Z,-3.9
2017-01-02T02:46:33.819Z,-3.9
2017-01-02T02:46:52.461Z,-4
2017-01-02T02:47:11.137Z,-3.9
2017-01-02T02:47:29.784Z,-4
2017-01-02T02:47:48.428Z,-4
2017-01-02T02:48:07.076Z,-4
2017-01-02T02:48:25.738Z,-4
2017-01-02T02:48:44.413Z,-4
2017-01-02T02:49:03.056Z,-4
2017-01-02T02:49:21.698Z,-4
2017-01-02T02:49:40.344Z,-4
2017-01-02T02:49:58.995Z,-4
2017-01-02T02:50:17.643Z,-4
2017-01-02T02:50:36.309Z,-4
2017-01-02T02:50:54.962Z,-4
2017-01-02T02:51:13.605Z,-4
2017-01-02T02:51:32.258Z,-3.9
2017-01-02T02:51:50.927Z,-3.9
2017-01-02T02:52:09.575Z,-3.9
2017-01-02T02:52:28.234Z,-3.9
2017-01-02T02:52:46.877Z,-3.9
2017-01-02T02:53:05.522Z,-3.8
2017-01-02T02:53:24.169Z,-3.8
2017-01-02T02:53:42.828Z,-3.7
2017-01-02T02:54:01.474Z,-3.7
2017-01-02T02:54:20.120Z,-3.7
2017-01-02T02:54:38.766Z,-3.7
2017-01-02T02:54:57.417Z,-3.6
2017-01-02T02:55:16.081Z,-3.6
2017-01-02T02:55:34.732Z,-3.5
2017-01-02T02:55:53.380Z,-3.5
2017-01-02T02:56:12.024Z,-3.4
2017-01-02T02:56:30.683Z,-3.4
2017-01-02T02:56:49.367Z,-3.3
2017-01-02T02:57:08.013Z,-3.3
2017-01-02T02:57:26.657Z,-3.3
2017-01-02T02:57:45.330Z,-3.2
2017-01-02T02:58:03.979Z,-3.2
2017-01-02T02:58:22.625Z,-3.1
2017-01-02T02:58:41.267Z,-3.1
2017-01-02T02:58:59.926Z,-3.1
2017-01-02T02:59:18.571Z,-3
2017-01-02T02:59:37.219Z,-3
2017-01-02T02:59:55.890Z,-3
2017-01-02T03:00:14.534Z,-3
2017-01-02T03:00:33.188Z,-3
2017-01-02T03:00:51.840Z,-2.9
2017-01-02T03:01:10.484Z,-2.9
2017-01-02T03:01:29.127Z,-2.9
2017-01-02T03:01:47.782Z,-2.9
2017-01-02T03:02:06.429Z,-2.9
2017-01-02T03:02:25.077Z,-2.9
2017-01-02T03:02:43.724Z,-2.9
2017-01-02T03:03:02.397Z,-2.9
2017-01-02T03:03:21.063Z,-2.8
2017-01-02T03:03:39.712Z,-2.8
2017-01-02T03:03:58.357Z,-2.8
2017-01-02T03:04:17.004Z,-2.8
2017-01-02T03:04:35.672Z,-2.8
2017-01-02T03:04:54.346Z,-2.8
2017-01-02T03:05:12.992Z,-2.8
2017-01-02T03:05:31.636Z,-2.8
2017-01-02T03:05:50.282Z,-2.8
2017-01-02T03:06:08.942Z,-2.8
2017-01-02T03:06:27.588Z,-2.8
2017-01-02T03:06:46.235Z,-2.8
2017-01-02T03:07:04.882Z,-2.8
2017-01-02T03:07:23.525Z,-2.8
2017-01-02T03:07:42.178Z,-2.9
2017-01-02T03:08:00.861Z,-2.8
2017-01-02T03:08:19.529Z,-2.9
2017-01-02T03:08:38.172Z,-2.9
2017-01-02T03:08:56.829Z,-2.9
2017-01-02T03:09:15.479Z,-2.9
2017-01-02T03:09:34.131Z,-2.9
2017-01-02T03:09:52.772Z,-2.9
2017-01-02T03:10:11.419Z,-2.9
2017-01-02T03:10:30.069Z,-2.9
2017-01-02T03:10:48.716Z,-2.9
2017-01-02T03:11:07.365Z,-2.9
2017-01-02T03:11:26.025Z,-2.9
2017-01-02T03:11:44.691Z,-2.9
2017-01-02T03:12:03.346Z,-2.9
2017-01-02T03:12:21.992Z,-2.9
2017-01-02T03:12:40.645Z,-2.9
2017-01-02T03:12:59.321Z,-2.9
2017-01-02T03:13:17.972Z,-2.9
2017-01-02T03:13:36.628Z,-2.9
2017-01-02T03:13:55.269Z,-2.9
2017-01-02T03:14:13.921Z,-2.8
2017-01-02T03:14:32.566Z,-2.8
2017-01-02T03:14:51.219Z,-2.8
2017-01-02T03:15:09.864Z,-2.8
2017-01-02T03:15:28.505Z,-2.8
2017-01-02T03:15:47.165Z,-2.8
2017-01-02T03:16:05.841Z,-2.7
2017-01-02T03:16:24.486Z,-2.7
2017-01-02T03:16:43.129Z,-2.7
2017-01-02T03:17:01.775Z,-2.7
2017-01-02T03:17:20.422Z,-2.7
2017-01-02T03:17:39.074Z,-2.7
2017-01-02T03:17:57.722Z,-2.7
2017-01-02T03:18:16.366Z,-2.7
2017-01-02T03:18:35.017Z,-2.7
2017-01-02T03:18:53.686Z,-2.6
2017-01-02T03:19:12.339Z,-2.6
2017-01-02T03:19:31.003Z,-2.7
2017-01-02T03:19:49.653Z,-2.6
2017-01-02T03:20:08.297Z,-2.6
2017-01-02T03:20:26.939Z,-2.6
2017-01-02T03:20:45.599Z,-2.7
2017-01-02T03:21:04.271Z,-2.7
2017-01-02T03:21:22.922Z,-2.7
2017-01-02T03:21:41.570Z,-2.7
2017-01-02T03:22:00.223Z,-2.7
2017-01-02T03:22:18.868Z,-2.7
2017-01-02T03:22:37.508Z,-2.7
2017-01-02T03:22:56.157Z,-2.7
2017-01-02T03:23:14.803Z,-2.8
2017-01-02T03:23:33.456Z,-2.7
2017-01-02T03:23:52.098Z,-2.8
2017-01-02T03:24:10.799Z,-2.7
2017-01-02T03:24:29.449Z,-2.8
2017-01-02T03:24:48.095Z,-2.7
2017-01-02T03:25:06.746Z,-2.8
2017-01-02T03:25:25.399Z,-2.8
2017-01-02T03:25:44.048Z,-2.8
2017-01-02T03:26:02.700Z,-2.8
2017-01-02T03:26:21.347Z,-2.8
2017-01-02T03:26:39.998Z,-2.8
2017-01-02T03:26:58.647Z,-2.8
2017-01-02T03:27:17.293Z,-2.8
2017-01-02T03:27:35.964Z,-2.8
2017-01-02T03:27:54.605Z,-2.8
2017-01-02T03:28:13.250Z,-2.8
2017-01-02T03:28:31.903Z,-2.8
2017-01-02T03:28:50.567Z,-2.8
2017-01-02T03:29:09.234Z,-2.9
2017-01-02T03:29:27.901Z,-2.8
2017-01-02T03:29:46.554Z,-2.8
2017-01-02T03:30:05.200Z,-2.9
2017-01-02T03:30:23.840Z,-2.9
2017-01-02T03:30:42.478Z,-2.9
2017-01-02T03:31:01.125Z,-2.9
2017-01-02T03:31:19.781Z,-2.9
2017-01-02T03:31:38.429Z,-2.9
2017-01-02T03:31:57.070Z,-2.9
2017-01-02T03:32:15.745Z,-2.8
2017-01-02T03:32:34.391Z,-2.8
2017-01-02T03:32:53.041Z,-2.8
2017-01-02T03:33:11.689Z,-2.8
2017-01-02T03:33:30.333Z,-2.8
2017-01-02T03:33:48.984Z,-2.8
2017-01-02T03:34:07.629Z,-2.8
2017-01-02T03:34:26.279Z,-2.8
2017-01-02T03:34:44.949Z,-2.8
2017-01-02T03:35:03.605Z,-2.8
2017-01-02T03:35:22.254Z,-2.8
2017-01-02T03:35:40.921Z,-2.8
2017-01-02T03:35:59.563Z,-2.8
2017-01-02T03:36:18.221Z,-2.8
2017-01-02T03:36:36.868Z,-2.8
2017-01-02T03:36:55.531Z,-2.8
2017-01-02T03:37:14.200Z,-2.8
2017-01-02T03:37:32.851Z,-2.8
2017-01-02T03:37:51.499Z,-2.8
2017-01-02T03:38:10.151Z,-2.8
2017-01-02T03:38:28.795Z,-2.8
2017-01-02T03:38:47.438Z,-2.8
2017-01-02T03:39:06.087Z,-2.9
2017-01-02T03:39:24.730Z,-2.9
2017-01-02T03:39:43.379Z,-2.9
2017-01-02T03:40:02.048Z,-2.9
2017-01-02T03:40:20.743Z,-2.9
2017-01-02T03:40:39.393Z,-2.9
2017-01-02T03:40:58.041Z,-2.9
2017-01-02T03:41:16.686Z,-2.9
2017-01-02T03:41:35.344Z,-2.9
2017-01-02T03:41:53.995Z,-2.9
2017-01-02T03:42:12.641Z,-2.9
2017-01-02T03:42:31.281Z,-2.9
2017-01-02T03:42:49.927Z,-2.9
2017-01-02T03:43:08.578Z,-2.9
2017-01-02T03:43:27.222Z,-2.9
2017-01-02T03:43:45.883Z,-2.9
2017-01-02T03:44:04.525Z,-2.9
2017-01-02T03:44:23.198Z,-2.9
2017-01-02T03:44:41.852Z,-2.9
2017-01-02T03:45:00.517Z,-3
2017-01-02T03:45:19.204Z,-3
2017-01-02T03:45:37.858Z,-3
2017-01-02T03:45:56.507Z,-3
2017-01-02T03:46:15.152Z,-3
2017-01-02T03:46:33.797Z,-3
2017-01-02T03:46:52.445Z,-3
2017-01-02T03:47:11.094Z,-3.1
2017-01-02T03:47:29.744Z,-3.1
2017-01-02T03:47:48.396Z,-3.1
2017-01-02T03:48:07.038Z,-3.1
2017-01-02T03:48:25.721Z,-3.1
2017-01-02T03:48:44.367Z,-3.2
2017-01-02T03:49:03.015Z,-3.2
2017-01-02T03:49:21.658Z,-3.2
2017-01-02T03:49:40.305Z,-3.2
2017-01-02T03:49:58.957Z,-3.2
2017-01-02T03:50:17.602Z,-3.2
2017-01-02T03:50:36.261Z,-3.2
2017-01-02T03:50:54.903Z,-3.3
2017-01-02T03:51:13.552Z,-3.2
2017-01-02T03:51:32.223Z,-3.3
2017-01-02T03:51:50.875Z,-3.2
2017-01-02T03:52:09.519Z,-3.3
2017-01-02T03:52:28.169Z,-3.3
2017-01-02T03:52:46.822Z,-3.2
2017-01-02T03:53:05.486Z,-3.2
2017-01-02T03:53:24.141Z,-3.2
2017-01-02T03:53:42.782Z,-3.2
2017-01-02T03:54:01.426Z,-3.1
2017-01-02T03:54:20.074Z,-3.1
2017-01-02T03:54:38.733Z,-3.1
2017-01-02T03:54:57.375Z,-3.1
2017-01-02T03:55:16.028Z,-3
2017-01-02T03:55:34.683Z,-3
2017-01-02T03:55:53.333Z,-3
2017-01-02T03:56:11.974Z,-2.9
2017-01-02T03:56:30.648Z,-2.9
2017-01-02T03:56:49.298Z,-2.9
2017-01-02T03:57:07.955Z,-2.8
2017-01-02T03:57:26.601Z,-2.8
2017-01-02T03:57:45.246Z,-2.8
2017-01-02T03:58:03.898Z,-2.8
2017-01-02T03:58:22.549Z,-2.8
2017-01-02T03:58:41.195Z,-2.7
2017-01-02T03:58:59.835Z,-2.7
2017-01-02T03:59:18.476Z,-2.7
2017-01-02T03:59:37.126Z,-2.7
2017-01-02T03:59:55.792Z,-2.7
2017-01-02T04:00:14.441Z,-2.7
2017-01-02T04:00:33.088Z,-2.6
2017-01-02T04:00:51.731Z,-2.6
2017-01-02T04:01:10.398Z,-2.6
2017-01-02T04:01:29.077Z,-2.6
2017-01-02T04:01:47.724Z,-2.6
2017-01-02T04:02:06.366Z,-2.5
2017-01-02T04:02:25.012Z,-2.5
2017-01-02T04:02:43.658Z,-2.5
2017-01-02T04:03:02.303Z,-2.5
2017-01-02T04:03:20.946Z,-2.5
2017-01-02T04:03:39.599Z,-2.5
2017-01-02T04:03:58.244Z,-2.4
2017-01-02T04:04:16.890Z,-2.4
2017-01-02T04:04:35.561Z,-2.4
2017-01-02T04:04:54.203Z,-2.4
2017-01-02T04:05:12.853Z,-2.4
2017-01-02T04:05:31.498Z,-2.4
2017-01-02T04:05:50.141Z,-2.4
2017-01-02T04:06:08.788Z,-2.4
2017-01-02T04:06:27.450Z,-2.4
2017-01-02T04:06:46.112Z,-2.4
2017-01-02T04:07:04.764Z,-2.3
2017-01-02T04:07:23.412Z,-2.3
2017-01-02T04:07:42.053Z,-2.3
2017-01-02T04:08:00.733Z,-2.3
2017-01-02T04:08:19.381Z,-2.3
2017-01-02T04:08:38.026Z,-2.3
2017-01-02T04:08:56.668Z,-2.3
2017-01-02T04:09:15.325Z,-2.2